Barnstable Municipal Boardman Polando Field
KHYA : now visible

Airfield :











YOU CAN JOIN US ON...

 
LOGIN :

Register | Disclaimer

   EN    FR    IT 

 









Legend :    VFR   Marginal VFR   IFR   Intensive IFR   Very Intensive IFR
Visi :
Ceiling :
>= 8 km
>= 3000ft
5 to 8 km
1000 to 3000 ft
1500m to 5 km
500 to 1000 ft
800 to 1500m
200 to 500 ft
< 800m
< 200 ft
Symbols :   Thunderstorms  Fog  Heavy snow  Heavy precipitations  Wind > 20 kt






- Airport Elevation : 54 ft
- IATA code : HYA


KHYA - Barnstable Municipal Boardman Polando Field

CURRENT METAR :
  • 180556Z AUTO 02003KT 10SM CLR M02/M06 A3044 RMK AO2 SLP309 T10171061 10000 21028 51016

EXPIRED METARs :
  • 180456Z AUTO 00000KT 10SM CLR M01/M06 A3043 RMK AO2 SLP305 T10111061 400831044
  • 180356Z AUTO 03004KT 10SM CLR M01/M06 A3041 RMK AO2 SLP299 T10111061

TAF KHYA
Valid from the 18 at 06:00 until the 19 at 06:00 UTC


180522Z 1806/1906 05003KT P6SM SCT150
FM181200 11010G18KT P6SM OVC100
FM181800 13015G25KT 6SM -RA OVC025
FM182000 13015G28KT 4SM -RA OVC015
FM182300 15017G29KT 1 1/2SM -RA OVC003 WS020/17045KT
FM190000 17008KT 1 1/2SM -SHRA BR OVC003 WS020/18050KT
FM190200 21007KT 1 1/2SM BR VCSH OVC003 WS020/22040KT
FM190500 24006KT 2SM BR VCSH OVC008



MET'MAP, your aeronautical weather chart ! - Copyright ORBIFLY December 2007 - Disclaimer

ORBIFLY MET'MAP TEAM :

Programming & Development : Alexandra Zaïnal
Concept & original design : Baudouin d'Aumeries
Assistance for programming : Marc-Olivier Méhu
Technical & hardware support : Manuel Goepfert

Contact : metmap@orbifly.com




SOURCES & CREDITS :

   NOAA       Earth
Advisory